Burgtor — V2OR7 — position and weather

sailwx.info

Track history (hours):
 
Tides and Currents Weather Stations Pressure Air Temp Water Temp Dewpoint Dewpoint Depression Visibility Wind Speed Wind Dir Waves Ship Positions

Burgtor

Last reported at 2015-May-20 00:13 UTC. Time now 2015-May-29 10:24 UTC.
Position N 50°33' E 000°03'.
Warning: this ship's position is 9 days out of date.

Length 87 m; draft 5.2 m.

Type: Cargo ship. MMSI: 304665000.

Date/timePositionNaut miles runAvg speedWind from/ knotsBaromVisibWave heightAir tempDewpointWater temp
2015-May-20 00:13N 50°33' E 000°03'5 6.2
2015-May-19 23:26N 50°34' E 000°10'5 5.2
2015-May-19 22:33N 50°35' E 000°17'4 4.3
2015-May-19 21:33N 50°37' E 000°24'4 4.1
2015-May-19 20:33N 50°38' E 000°30'4 4.1
2015-May-19 19:33N 50°39' E 000°36'6 5.8
2015-May-19 18:33N 50°43' E 000°43'7 7.1
2015-May-19 17:33N 50°47' E 000°53'19 6.3
2015-May-19 14:30N 50°59' E 001°17'4 3.8
2015-May-19 13:32N 51°01' E 001°21'3 2.8
2015-May-19 12:33N 51°03' E 001°24'2 2.0
2015-May-19 11:33N 51°04' E 001°27'4 3.6
2015-May-19 10:33N 51°07' E 001°31'7 7.4
2015-May-19 09:33N 51°13' E 001°37'1111.0
2015-May-19 08:33N 51°23' E 001°43'10 9.9
2015-May-19 07:33N 51°33' E 001°44'9 8.7
2015-May-19 06:33N 51°42' E 001°44'8 7.9
2015-May-19 05:33N 51°50' E 001°43'7 6.4
2015-May-19 04:33N 51°56' E 001°44'5 5.4
2015-May-19 03:33N 52°02' E 001°45'5 4.5
2015-May-19 02:33N 52°06' E 001°47'5 5.2
2015-May-19 01:33N 52°11' E 001°48'6 6.1
2015-May-19 00:33N 52°17' E 001°49'7 7.4
2015-May-18 23:34N 52°25' E 001°51'9 8.8
2015-May-18 22:33N 52°33' E 001°53'10 9.7
2015-May-18 21:33N 52°43' E 001°55'1010.4
2015-May-18 20:34N 52°50' E 001°42'1111.2
2015-May-18 19:33N 52°57' E 001°27'1111.2
2015-May-18 18:33N 53°01' E 001°10'4010.1
2015-May-18 14:32N 53°34' E 000°31'1010.3
2015-May-18 13:31N 53°43' E 000°23'9 9.2
2015-May-18 12:33N 53°51' E 000°16'8 8.1
2015-May-18 11:33N 53°58' E 000°09'7 6.9
2015-May-18 10:33N 54°04' E 000°03'6 6.3
2015-May-18 09:33N 54°10' W 000°03'7 6.7
2015-May-18 08:33N 54°15' W 000°09'7 7.5
2015-May-18 07:33N 54°21' W 000°17'8 8.3
2015-May-18 06:33N 54°28' W 000°26'9 9.2
2015-May-18 05:33N 54°35' W 000°34'10 9.6
2015-May-18 04:32N 54°44' W 000°43'10 9.7
2015-May-18 03:33N 54°52' W 000°51'10 9.8
2015-May-18 02:33N 55°01' W 000°60'  
2015-May-13 09:32N 54°59' W 000°56'8 8.2
2015-May-13 08:33N 54°52' W 000°50'9 8.6
2015-May-13 07:33N 54°47' W 000°37'9 8.9
2015-May-13 06:33N 54°39' W 000°29'9 9.2
2015-May-13 05:33N 54°31' W 000°22'9 9.3
2015-May-13 04:33N 54°23' W 000°14'9 9.3
2015-May-13 03:33N 54°15' W 000°07'9 9.4
2015-May-13 02:33N 54°07' E 000°01'9 8.8
2015-May-13 01:33N 53°59' E 000°09'8 8.2
2015-May-13 00:33N 53°52' E 000°16'8 7.7
2015-May-12 23:33N 53°45' E 000°22'7 7.2
2015-May-12 22:32N 53°39' E 000°28'44 8.7
2015-May-12 17:28N 53°02' E 001°09'8 8.8
2015-May-12 16:33N 52°59' E 001°21'8 7.8
2015-May-12 15:34N 52°56' E 001°33'7 7.2
2015-May-12 14:33N 52°51' E 001°42'7 6.6
2015-May-12 13:33N 52°47' E 001°50'6 6.3
2015-May-12 12:33N 52°41' E 001°55'8 8.2
2015-May-12 11:33N 52°33' E 001°53'9 9.3
2015-May-12 10:33N 52°24' E 001°52'1010.0
2015-May-12 09:33N 52°14' E 001°51'1010.4
2015-May-12 08:33N 52°03' E 001°50'1010.5
2015-May-12 07:33N 51°53' E 001°49'10 9.7
2015-May-12 06:33N 51°43' E 001°49'9 9.4
2015-May-12 05:33N 51°34' E 001°49'9 9.4
2015-May-12 04:33N 51°25' E 001°46'9 8.9
2015-May-12 03:33N 51°16' E 001°42'8 8.2
2015-May-12 02:33N 51°09' E 001°34'8 7.7
2015-May-12 01:33N 51°05' E 001°24'8 7.8
2015-May-12 00:33N 50°60' E 001°15'8 8.0
2015-May-11 23:33N 50°55' E 001°05'8 8.2
2015-May-11 22:33N 50°50' E 000°54'8 8.5
2015-May-11 21:33N 50°45' E 000°44'8 8.2
2015-May-11 20:33N 50°40' E 000°33'8 7.9
2015-May-11 19:33N 50°40' E 000°20'8 8.0
2015-May-11 18:33N 50°41' E 000°08'17 7.3
2015-May-11 16:18N 50°50' W 000°15'1 0.1
2015-May-10 22:31N 50°50' W 000°13'0 0.0
2015-May-10 21:31N 50°50' W 000°13'  
Track history (hours):
 
Tides and Currents Weather Stations Pressure Air Temp Water Temp Dewpoint Dewpoint Depression Visibility Wind Speed Wind Dir Waves Ship Positions

Burgtor

Last reported at 2015-May-20 00:13 UTC. Time now 2015-May-29 10:24 UTC.
Position N 50°33' E 000°03'.
Warning: this ship's position is 9 days out of date.

Length 87 m; draft 5.2 m.

Type: Cargo ship. MMSI: 304665000.

Date/timePositionNaut miles runAvg speedWind from/ knotsBaromVisibWave heightAir tempDewpointWater temp
2015-May-20 00:13N 50°33' E 000°03'5 6.2
2015-May-19 23:26N 50°34' E 000°10'5 5.2
2015-May-19 22:33N 50°35' E 000°17'4 4.3
2015-May-19 21:33N 50°37' E 000°24'4 4.1
2015-May-19 20:33N 50°38' E 000°30'4 4.1
2015-May-19 19:33N 50°39' E 000°36'6 5.8
2015-May-19 18:33N 50°43' E 000°43'7 7.1
2015-May-19 17:33N 50°47' E 000°53'19 6.3
2015-May-19 14:30N 50°59' E 001°17'4 3.8
2015-May-19 13:32N 51°01' E 001°21'3 2.8
2015-May-19 12:33N 51°03' E 001°24'2 2.0
2015-May-19 11:33N 51°04' E 001°27'4 3.6
2015-May-19 10:33N 51°07' E 001°31'7 7.4
2015-May-19 09:33N 51°13' E 001°37'1111.0
2015-May-19 08:33N 51°23' E 001°43'10 9.9
2015-May-19 07:33N 51°33' E 001°44'9 8.7
2015-May-19 06:33N 51°42' E 001°44'8 7.9
2015-May-19 05:33N 51°50' E 001°43'7 6.4
2015-May-19 04:33N 51°56' E 001°44'5 5.4
2015-May-19 03:33N 52°02' E 001°45'5 4.5
2015-May-19 02:33N 52°06' E 001°47'5 5.2
2015-May-19 01:33N 52°11' E 001°48'6 6.1
2015-May-19 00:33N 52°17' E 001°49'7 7.4
2015-May-18 23:34N 52°25' E 001°51'9 8.8
2015-May-18 22:33N 52°33' E 001°53'10 9.7
2015-May-18 21:33N 52°43' E 001°55'1010.4
2015-May-18 20:34N 52°50' E 001°42'1111.2
2015-May-18 19:33N 52°57' E 001°27'1111.2
2015-May-18 18:33N 53°01' E 001°10'4010.1
2015-May-18 14:32N 53°34' E 000°31'1010.3
2015-May-18 13:31N 53°43' E 000°23'9 9.2
2015-May-18 12:33N 53°51' E 000°16'8 8.1
2015-May-18 11:33N 53°58' E 000°09'7 6.9
2015-May-18 10:33N 54°04' E 000°03'6 6.3
2015-May-18 09:33N 54°10' W 000°03'7 6.7
2015-May-18 08:33N 54°15' W 000°09'7 7.5
2015-May-18 07:33N 54°21' W 000°17'8 8.3
2015-May-18 06:33N 54°28' W 000°26'9 9.2
2015-May-18 05:33N 54°35' W 000°34'10 9.6
2015-May-18 04:32N 54°44' W 000°43'10 9.7
2015-May-18 03:33N 54°52' W 000°51'10 9.8
2015-May-18 02:33N 55°01' W 000°60'  
2015-May-13 09:32N 54°59' W 000°56'8 8.2
2015-May-13 08:33N 54°52' W 000°50'9 8.6
2015-May-13 07:33N 54°47' W 000°37'9 8.9
2015-May-13 06:33N 54°39' W 000°29'9 9.2
2015-May-13 05:33N 54°31' W 000°22'9 9.3
2015-May-13 04:33N 54°23' W 000°14'9 9.3
2015-May-13 03:33N 54°15' W 000°07'9 9.4
2015-May-13 02:33N 54°07' E 000°01'9 8.8
2015-May-13 01:33N 53°59' E 000°09'8 8.2
2015-May-13 00:33N 53°52' E 000°16'8 7.7
2015-May-12 23:33N 53°45' E 000°22'7 7.2
2015-May-12 22:32N 53°39' E 000°28'44 8.7
2015-May-12 17:28N 53°02' E 001°09'8 8.8
2015-May-12 16:33N 52°59' E 001°21'8 7.8
2015-May-12 15:34N 52°56' E 001°33'7 7.2
2015-May-12 14:33N 52°51' E 001°42'7 6.6
2015-May-12 13:33N 52°47' E 001°50'6 6.3
2015-May-12 12:33N 52°41' E 001°55'8 8.2
2015-May-12 11:33N 52°33' E 001°53'9 9.3
2015-May-12 10:33N 52°24' E 001°52'1010.0
2015-May-12 09:33N 52°14' E 001°51'1010.4
2015-May-12 08:33N 52°03' E 001°50'1010.5
2015-May-12 07:33N 51°53' E 001°49'10 9.7
2015-May-12 06:33N 51°43' E 001°49'9 9.4
2015-May-12 05:33N 51°34' E 001°49'9 9.4
2015-May-12 04:33N 51°25' E 001°46'9 8.9
2015-May-12 03:33N 51°16' E 001°42'8 8.2
2015-May-12 02:33N 51°09' E 001°34'8 7.7
2015-May-12 01:33N 51°05' E 001°24'8 7.8
2015-May-12 00:33N 50°60' E 001°15'8 8.0
2015-May-11 23:33N 50°55' E 001°05'8 8.2
2015-May-11 22:33N 50°50' E 000°54'8 8.5
2015-May-11 21:33N 50°45' E 000°44'8 8.2
2015-May-11 20:33N 50°40' E 000°33'8 7.9
2015-May-11 19:33N 50°40' E 000°20'8 8.0
2015-May-11 18:33N 50°41' E 000°08'17 7.3
2015-May-11 16:18N 50°50' W 000°15'1 0.1
2015-May-10 22:31N 50°50' W 000°13'0 0.0
2015-May-10 21:31N 50°50' W 000°13'  

Dump ship's entire track history